createdAt,value
2023-05-07T00:02:05.765Z,101501.00
2023-05-07T00:04:38.733Z,101504.00
2023-05-07T00:07:07.812Z,101488.00
2023-05-07T00:09:36.622Z,101475.00
2023-05-07T00:12:05.308Z,101506.00
2023-05-07T00:14:35.029Z,101494.00
2023-05-07T00:17:03.529Z,101492.00
2023-05-07T00:19:31.756Z,101505.00
2023-05-07T00:22:00.412Z,101517.00
2023-05-07T00:24:29.265Z,101491.00
2023-05-07T00:26:59.130Z,101514.00
2023-05-07T00:29:27.831Z,101499.00
2023-05-07T00:32:00.307Z,101498.00
2023-05-07T00:34:28.677Z,101521.00
2023-05-07T00:36:57.531Z,101524.00
2023-05-07T00:39:26.174Z,101479.00
2023-05-07T00:41:54.702Z,101525.00
2023-05-07T00:44:23.146Z,101508.00
2023-05-07T00:46:52.037Z,101525.00
2023-05-07T00:49:23.370Z,101496.00
2023-05-07T00:51:53.149Z,101519.00
2023-05-07T00:54:22.095Z,101488.00
2023-05-07T00:56:50.705Z,101518.00
2023-05-07T00:59:19.539Z,101497.00
2023-05-07T01:01:48.125Z,101468.00
2023-05-07T01:04:16.512Z,101518.00
2023-05-07T01:06:47.370Z,101505.00
2023-05-07T01:09:16.502Z,101506.00
2023-05-07T01:11:45.864Z,101523.00
2023-05-07T01:14:14.282Z,101512.00
2023-05-07T01:16:42.681Z,101466.00
2023-05-07T01:19:14.973Z,101474.00
2023-05-07T01:21:50.066Z,101480.00
2023-05-07T01:24:20.807Z,101501.00
2023-05-07T01:26:49.108Z,101471.00
2023-05-07T01:29:17.387Z,101502.00
2023-05-07T01:31:46.635Z,101505.00
2023-05-07T01:34:17.914Z,101492.00
2023-05-07T01:36:47.754Z,101494.00
2023-05-07T01:39:17.248Z,101492.00
2023-05-07T01:41:48.448Z,101493.00
2023-05-07T01:44:18.083Z,101445.00
2023-05-07T01:46:47.931Z,101491.00
2023-05-07T01:49:16.631Z,101452.00
2023-05-07T01:51:45.656Z,101500.00
2023-05-07T01:54:14.279Z,101466.00
2023-05-07T01:56:43.234Z,101507.00
2023-05-07T01:59:14.750Z,101507.00
2023-05-07T02:01:43.040Z,101504.00
2023-05-07T02:04:11.692Z,101508.00
2023-05-07T02:06:39.924Z,101505.00
2023-05-07T02:09:10.015Z,101477.00
2023-05-07T02:11:38.576Z,101477.00
2023-05-07T02:14:07.297Z,101456.00
2023-05-07T02:16:37.038Z,101477.00
2023-05-07T02:19:05.451Z,101477.00
2023-05-07T02:21:33.808Z,101509.00
2023-05-07T02:24:02.201Z,101509.00
2023-05-07T02:26:30.892Z,101497.00
2023-05-07T02:28:59.326Z,101457.00
2023-05-07T02:31:28.010Z,101506.00
2023-05-07T02:33:58.006Z,101519.00
2023-05-07T02:36:27.569Z,101481.00
2023-05-07T02:38:56.269Z,101523.00
2023-05-07T02:41:24.760Z,101457.00
2023-05-07T02:43:53.553Z,101492.00
2023-05-07T02:46:22.541Z,101496.00
2023-05-07T02:48:50.946Z,101451.00
2023-05-07T02:51:26.176Z,101481.00
2023-05-07T02:53:54.682Z,101498.00
2023-05-07T02:56:23.064Z,101478.00
2023-05-07T02:58:51.442Z,101456.00
2023-05-07T03:01:20.070Z,101477.00
2023-05-07T03:03:48.759Z,101504.00
2023-05-07T03:06:17.561Z,101423.00
2023-05-07T03:08:47.283Z,101468.00
2023-05-07T03:11:16.671Z,101507.00
2023-05-07T03:13:45.269Z,101451.00
2023-05-07T03:16:13.552Z,101484.00
2023-05-07T03:18:42.847Z,101483.00
2023-05-07T03:21:11.138Z,101508.00
2023-05-07T03:23:39.873Z,101505.00
2023-05-07T03:26:09.559Z,101477.00
2023-05-07T03:28:38.326Z,101502.00
2023-05-07T03:31:07.788Z,101491.00
2023-05-07T03:33:36.714Z,101478.00
2023-05-07T03:36:05.832Z,101463.00
2023-05-07T03:38:34.501Z,101492.00
2023-05-07T03:41:03.562Z,101518.00
2023-05-07T03:43:33.825Z,101512.00
2023-05-07T03:46:02.667Z,101494.00
2023-05-07T03:48:31.601Z,101504.00
2023-05-07T03:51:00.919Z,101524.00
2023-05-07T03:53:29.973Z,101525.00
2023-05-07T03:55:58.760Z,101520.00
2023-05-07T03:58:28.448Z,101510.00
2023-05-07T04:00:59.266Z,101524.00
2023-05-07T04:03:29.154Z,101495.00
2023-05-07T04:05:58.675Z,101506.00
2023-05-07T04:08:28.350Z,101502.00
2023-05-07T04:11:01.646Z,101479.00
2023-05-07T04:13:31.548Z,101502.00
2023-05-07T04:16:04.102Z,101524.00
2023-05-07T04:18:36.717Z,101512.00
2023-05-07T04:21:06.047Z,101535.00
2023-05-07T04:23:35.419Z,101539.00
2023-05-07T04:26:04.175Z,101536.00
2023-05-07T04:28:32.485Z,101506.00
2023-05-07T04:31:02.142Z,101541.00
2023-05-07T04:33:30.816Z,101484.00
2023-05-07T04:36:04.225Z,101524.00
2023-05-07T04:38:32.925Z,101526.00
2023-05-07T04:41:05.262Z,101547.00
2023-05-07T04:43:33.487Z,101522.00
2023-05-07T04:46:03.113Z,101544.00
2023-05-07T04:48:31.396Z,101499.00
2023-05-07T04:50:59.668Z,101487.00
2023-05-07T04:53:27.952Z,101495.00
2023-05-07T04:56:00.483Z,101508.00
2023-05-07T04:58:32.649Z,101531.00
2023-05-07T05:01:03.007Z,101529.00
2023-05-07T05:03:32.200Z,101504.00
2023-05-07T05:06:00.869Z,101523.00
2023-05-07T05:08:29.024Z,101516.00
2023-05-07T05:10:57.381Z,101496.00
2023-05-07T05:13:25.542Z,101551.00
2023-05-07T05:15:53.786Z,101511.00
2023-05-07T05:18:23.478Z,101522.00
2023-05-07T05:20:51.757Z,101545.00
2023-05-07T05:23:19.881Z,101556.00
2023-05-07T05:25:48.085Z,101511.00
2023-05-07T05:28:16.335Z,101539.00
2023-05-07T05:30:44.530Z,101535.00
2023-05-07T05:33:12.830Z,101522.00
2023-05-07T05:35:42.423Z,101547.00
2023-05-07T05:38:10.664Z,101555.00
2023-05-07T05:40:38.882Z,101575.00
2023-05-07T05:43:08.189Z,101572.00
2023-05-07T05:45:36.411Z,101561.00
2023-05-07T05:48:04.909Z,101580.00
2023-05-07T05:50:33.322Z,101529.00
2023-05-07T05:53:02.876Z,101576.00
2023-05-07T05:55:33.398Z,101553.00
2023-05-07T05:58:01.869Z,101544.00
2023-05-07T06:00:30.674Z,101558.00
2023-05-07T06:02:58.925Z,101556.00
2023-05-07T06:05:27.271Z,101551.00
2023-05-07T06:07:58.048Z,101550.00
2023-05-07T06:10:28.257Z,101581.00
2023-05-07T06:12:56.620Z,101593.00
2023-05-07T06:15:25.020Z,101550.00
2023-05-07T06:17:53.293Z,101578.00
2023-05-07T06:20:21.918Z,101554.00
2023-05-07T06:22:50.198Z,101564.00
2023-05-07T06:25:18.781Z,101582.00
2023-05-07T06:27:48.419Z,101572.00
2023-05-07T06:30:16.847Z,101547.00
2023-05-07T06:32:45.277Z,101614.00
2023-05-07T06:35:13.510Z,101570.00
2023-05-07T06:37:43.629Z,101616.00
2023-05-07T06:40:13.596Z,101561.00
2023-05-07T06:42:42.245Z,101569.00
2023-05-07T06:45:13.295Z,101615.00
2023-05-07T06:47:41.694Z,101619.00
2023-05-07T06:50:11.854Z,101618.00
2023-05-07T06:52:40.362Z,101623.00
2023-05-07T06:55:10.639Z,101580.00
2023-05-07T06:57:38.757Z,101618.00
2023-05-07T07:00:10.453Z,101617.00
2023-05-07T07:02:40.709Z,101623.00
2023-05-07T07:05:10.764Z,101631.00
2023-05-07T07:07:39.108Z,101631.00
2023-05-07T07:10:09.216Z,101630.00
2023-05-07T07:12:37.831Z,101605.00
2023-05-07T07:15:08.223Z,101630.00
2023-05-07T07:17:36.388Z,101595.00
2023-05-07T07:20:08.786Z,101617.00
2023-05-07T07:22:38.720Z,101608.00
2023-05-07T07:25:08.083Z,101619.00
2023-05-07T07:27:36.794Z,101621.00
2023-05-07T07:30:09.369Z,101581.00
2023-05-07T07:32:38.376Z,101621.00
2023-05-07T07:35:10.216Z,101639.00
2023-05-07T07:37:38.575Z,101638.00
2023-05-07T07:40:08.783Z,101618.00
2023-05-07T07:42:37.085Z,101630.00
2023-05-07T07:45:06.745Z,101633.00
2023-05-07T07:47:35.026Z,101599.00
2023-05-07T07:50:03.367Z,101639.00
2023-05-07T07:52:33.172Z,101639.00
2023-05-07T07:55:01.350Z,101614.00
2023-05-07T07:57:30.033Z,101626.00
2023-05-07T07:59:58.424Z,101603.00
2023-05-07T08:02:26.908Z,101651.00
2023-05-07T08:04:55.202Z,101606.00
2023-05-07T08:07:23.803Z,101622.00
2023-05-07T08:09:53.573Z,101621.00
2023-05-07T08:12:21.942Z,101626.00
2023-05-07T08:14:50.445Z,101643.00
2023-05-07T08:17:18.986Z,101582.00
2023-05-07T08:19:47.405Z,101635.00
2023-05-07T08:22:15.675Z,101630.00
2023-05-07T08:24:43.917Z,101580.00
2023-05-07T08:27:13.529Z,101624.00
2023-05-07T08:29:41.877Z,101635.00
2023-05-07T08:32:10.169Z,101650.00
2023-05-07T08:34:38.347Z,101648.00
2023-05-07T08:37:06.806Z,101647.00
2023-05-07T08:39:34.984Z,101655.00
2023-05-07T08:42:05.698Z,101619.00
2023-05-07T08:44:37.062Z,101654.00
2023-05-07T08:47:06.837Z,101657.00
2023-05-07T08:49:36.912Z,101645.00
2023-05-07T08:52:07.017Z,101657.00
2023-05-07T08:54:39.375Z,101655.00
2023-05-07T08:57:07.560Z,101662.00
2023-05-07T08:59:37.849Z,101625.00
2023-05-07T09:02:10.165Z,101664.00
2023-05-07T09:04:38.339Z,101614.00
2023-05-07T09:07:07.437Z,101657.00
2023-05-07T09:09:35.940Z,101657.00
2023-05-07T09:12:04.833Z,101655.00
2023-05-07T09:14:32.943Z,101655.00
2023-05-07T09:17:02.480Z,101658.00
2023-05-07T09:19:30.771Z,101657.00
2023-05-07T09:22:02.705Z,101648.00
2023-05-07T09:24:34.983Z,101649.00
2023-05-07T09:27:03.902Z,101662.00
2023-05-07T09:29:36.341Z,101665.00
2023-05-07T09:32:07.802Z,101669.00
2023-05-07T09:34:37.184Z,101672.00
2023-05-07T09:37:09.563Z,101662.00
2023-05-07T09:39:42.876Z,101646.00
2023-05-07T09:42:12.455Z,101650.00
2023-05-07T09:44:43.554Z,101645.00
2023-05-07T09:47:20.228Z,101645.00
2023-05-07T09:49:50.422Z,101655.00
2023-05-07T09:52:19.465Z,101659.00
2023-05-07T09:54:49.338Z,101651.00
2023-05-07T09:57:19.133Z,101651.00
2023-05-07T09:59:50.321Z,101644.00
2023-05-07T10:02:22.143Z,101650.00
2023-05-07T10:04:51.501Z,101655.00
2023-05-07T10:07:20.401Z,101660.00
2023-05-07T10:09:49.449Z,101672.00
2023-05-07T10:12:18.735Z,101667.00
2023-05-07T10:14:49.256Z,101658.00
2023-05-07T10:17:20.336Z,101657.00
2023-05-07T10:19:49.215Z,101645.00
2023-05-07T10:22:18.869Z,101653.00
2023-05-07T10:24:51.045Z,101656.00
2023-05-07T10:27:21.401Z,101655.00
2023-05-07T10:30:11.052Z,101652.00
2023-05-07T10:32:44.853Z,101653.00
2023-05-07T10:35:20.675Z,101658.00
2023-05-07T10:37:50.328Z,101656.00
2023-05-07T10:40:20.498Z,101634.00
2023-05-07T10:43:00.488Z,101660.00
2023-05-07T10:45:29.466Z,101652.00
2023-05-07T10:50:48.301Z,101659.00
2023-05-07T10:53:30.025Z,101657.00
2023-05-07T10:56:28.920Z,101651.00
2023-05-07T10:58:58.565Z,101658.00
2023-05-07T11:01:53.201Z,101658.00
2023-05-07T11:04:27.477Z,101656.00
2023-05-07T11:07:32.826Z,101660.00
2023-05-07T11:10:07.109Z,101660.00
2023-05-07T11:12:57.288Z,101652.00
2023-05-07T11:15:46.771Z,101656.00
2023-05-07T11:18:16.898Z,101657.00
2023-05-07T11:20:58.702Z,101656.00
2023-05-07T11:24:01.063Z,101663.00
2023-05-07T11:26:32.258Z,101658.00
2023-05-07T11:29:01.498Z,101661.00
2023-05-07T11:31:31.075Z,101664.00
2023-05-07T11:34:00.516Z,101653.00
2023-05-07T11:36:35.607Z,101656.00
2023-05-07T11:39:04.257Z,101661.00
2023-05-07T11:41:38.029Z,101673.00
2023-05-07T11:44:06.671Z,101672.00
2023-05-07T11:46:35.915Z,101659.00
2023-05-07T11:49:05.435Z,101663.00
2023-05-07T11:51:35.217Z,101667.00
2023-05-07T11:54:09.670Z,101672.00
2023-05-07T11:56:38.061Z,101672.00
2023-05-07T11:59:07.266Z,101673.00
2023-05-07T12:01:38.514Z,101673.00
2023-05-07T12:04:07.523Z,101668.00
2023-05-07T12:06:40.237Z,101663.00
2023-05-07T12:09:12.485Z,101675.00
2023-05-07T12:11:41.853Z,101658.00
2023-05-07T12:14:13.469Z,101674.00
2023-05-07T12:16:42.682Z,101666.00
2023-05-07T12:19:15.661Z,101657.00
2023-05-07T12:21:45.722Z,101665.00
2023-05-07T12:24:14.044Z,101672.00
2023-05-07T12:26:42.785Z,101667.00
2023-05-07T12:29:11.007Z,101669.00
2023-05-07T12:31:42.662Z,101672.00
2023-05-07T12:34:12.932Z,101640.00
2023-05-07T12:36:42.712Z,101676.00
2023-05-07T12:39:12.191Z,101686.00
2023-05-07T12:41:55.949Z,101662.00
2023-05-07T12:44:25.582Z,101654.00
2023-05-07T12:46:54.030Z,101676.00
2023-05-07T12:49:25.297Z,101682.00
2023-05-07T12:51:53.879Z,101674.00
2023-05-07T12:54:33.885Z,101673.00
2023-05-07T12:57:07.521Z,101672.00
2023-05-07T12:59:38.161Z,101680.00
2023-05-07T13:02:11.027Z,101681.00
2023-05-07T13:04:41.592Z,101675.00
2023-05-07T13:07:09.872Z,101672.00
2023-05-07T13:09:39.536Z,101664.00
2023-05-07T13:12:08.185Z,101690.00
2023-05-07T13:14:42.845Z,101663.00
2023-05-07T13:17:11.053Z,101681.00
2023-05-07T13:19:39.402Z,101646.00
2023-05-07T13:22:10.440Z,101677.00
2023-05-07T13:24:42.626Z,101671.00
2023-05-07T13:27:10.849Z,101682.00
2023-05-07T13:29:39.286Z,101662.00
2023-05-07T13:32:07.430Z,101680.00
2023-05-07T13:34:35.650Z,101680.00
2023-05-07T13:37:03.839Z,101697.00
2023-05-07T13:39:31.930Z,101687.00
2023-05-07T13:42:01.620Z,101663.00
2023-05-07T13:44:30.825Z,101684.00
2023-05-07T13:46:58.984Z,101680.00
2023-05-07T13:49:27.204Z,101654.00
2023-05-07T13:51:55.378Z,101649.00
2023-05-07T13:54:23.715Z,101685.00
2023-05-07T13:56:51.966Z,101687.00
2023-05-07T13:59:21.646Z,101685.00
2023-05-07T14:01:50.613Z,101672.00
2023-05-07T14:04:19.056Z,101674.00
2023-05-07T14:06:47.859Z,101652.00
2023-05-07T14:09:16.019Z,101684.00
2023-05-07T14:11:44.372Z,101676.00
2023-05-07T14:14:12.791Z,101686.00
2023-05-07T14:16:42.493Z,101690.00
2023-05-07T14:19:11.084Z,101701.00
2023-05-07T14:21:39.456Z,101695.00
2023-05-07T14:24:09.566Z,101695.00
2023-05-07T14:26:37.854Z,101684.00
2023-05-07T14:29:06.233Z,101692.00
2023-05-07T14:31:39.780Z,101686.00
2023-05-07T14:34:10.109Z,101662.00
2023-05-07T14:36:38.874Z,101677.00
2023-05-07T14:39:07.966Z,101680.00
2023-05-07T14:41:36.371Z,101693.00
2023-05-07T14:44:05.064Z,101699.00
2023-05-07T14:46:33.367Z,101667.00
2023-05-07T14:49:04.695Z,101696.00
2023-05-07T14:51:35.410Z,101687.00
2023-05-07T14:54:04.264Z,101676.00
2023-05-07T14:56:32.555Z,101702.00
2023-05-07T14:59:02.333Z,101694.00
2023-05-07T15:01:31.250Z,101694.00
2023-05-07T15:04:00.033Z,101692.00
2023-05-07T15:06:28.709Z,101689.00
2023-05-07T15:08:58.211Z,101699.00
2023-05-07T15:11:26.461Z,101698.00
2023-05-07T15:13:54.610Z,101710.00
2023-05-07T15:16:23.172Z,101703.00
2023-05-07T15:18:51.560Z,101706.00
2023-05-07T15:21:19.933Z,101705.00
2023-05-07T15:23:48.145Z,101697.00
2023-05-07T15:26:17.696Z,101718.00
2023-05-07T15:28:46.332Z,101715.00
2023-05-07T15:31:14.492Z,101709.00
2023-05-07T15:33:42.775Z,101701.00
2023-05-07T15:36:11.156Z,101706.00
2023-05-07T15:38:39.295Z,101705.00
2023-05-07T15:41:07.678Z,101699.00
2023-05-07T15:43:47.657Z,101705.00
2023-05-07T15:46:20.492Z,101705.00
2023-05-07T15:48:48.884Z,101701.00
2023-05-07T15:51:17.684Z,101693.00
2023-05-07T15:53:45.938Z,101693.00
2023-05-07T15:56:15.261Z,101690.00
2023-05-07T15:58:44.930Z,101659.00
2023-05-07T16:01:13.322Z,101704.00
2023-05-07T16:03:42.033Z,101706.00
2023-05-07T16:06:14.816Z,101687.00
2023-05-07T16:08:44.277Z,101701.00
2023-05-07T16:11:12.594Z,101692.00
2023-05-07T16:13:40.997Z,101690.00
2023-05-07T16:16:10.639Z,101695.00
2023-05-07T16:18:38.967Z,101697.00
2023-05-07T16:21:08.459Z,101708.00
2023-05-07T16:23:37.532Z,101723.00
2023-05-07T16:26:06.033Z,101706.00
2023-05-07T16:28:34.280Z,101713.00
2023-05-07T16:31:02.953Z,101723.00
2023-05-07T16:33:33.071Z,101714.00
2023-05-07T16:36:02.488Z,101720.00
2023-05-07T16:38:33.014Z,101697.00
2023-05-07T16:41:01.259Z,101722.00
2023-05-07T16:43:29.770Z,101724.00
2023-05-07T16:45:58.243Z,101724.00
2023-05-07T16:48:27.584Z,101699.00
2023-05-07T16:50:57.152Z,101716.00
2023-05-07T16:53:25.500Z,101724.00
2023-05-07T16:55:56.627Z,101697.00
2023-05-07T16:58:25.115Z,101716.00
2023-05-07T17:00:53.313Z,101723.00
2023-05-07T17:03:24.777Z,101691.00
2023-05-07T17:05:53.780Z,101719.00
2023-05-07T17:08:23.812Z,101720.00
2023-05-07T17:10:52.046Z,101687.00
2023-05-07T17:13:34.394Z,101728.00
2023-05-07T17:16:03.025Z,101731.00
2023-05-07T17:18:37.215Z,101716.00
2023-05-07T17:21:13.107Z,101719.00
2023-05-07T17:24:31.935Z,101692.00
2023-05-07T17:27:00.626Z,101742.00
2023-05-07T17:29:28.923Z,101711.00
2023-05-07T17:32:00.175Z,101719.00
2023-05-07T17:34:28.709Z,101740.00
2023-05-07T17:36:59.087Z,101738.00
2023-05-07T17:39:28.733Z,101713.00
2023-05-07T17:42:09.792Z,101735.00
2023-05-07T17:44:37.904Z,101736.00
2023-05-07T17:47:07.043Z,101710.00
2023-05-07T17:49:35.701Z,101754.00
2023-05-07T17:52:04.371Z,101734.00
2023-05-07T17:54:34.061Z,101740.00
2023-05-07T17:57:02.558Z,101736.00
2023-05-07T17:59:30.992Z,101754.00
2023-05-07T18:02:02.518Z,101740.00
2023-05-07T18:04:31.015Z,101755.00
2023-05-07T18:06:59.159Z,101772.00
2023-05-07T18:09:27.381Z,101756.00
2023-05-07T18:11:57.206Z,101781.00
2023-05-07T18:14:26.219Z,101732.00
2023-05-07T18:16:55.202Z,101782.00
2023-05-07T18:19:23.670Z,101778.00
2023-05-07T18:21:52.089Z,101751.00
2023-05-07T18:24:20.833Z,101767.00
2023-05-07T18:26:49.467Z,101779.00
2023-05-07T18:29:19.171Z,101755.00
2023-05-07T18:31:47.500Z,101752.00
2023-05-07T18:34:16.012Z,101784.00
2023-05-07T18:36:44.489Z,101777.00
2023-05-07T18:39:12.678Z,101802.00
2023-05-07T18:41:41.346Z,101765.00
2023-05-07T18:44:10.147Z,101796.00
2023-05-07T18:46:39.684Z,101801.00
2023-05-07T18:49:07.962Z,101812.00
2023-05-07T18:51:36.064Z,101785.00
2023-05-07T18:54:04.739Z,101794.00
2023-05-07T18:56:33.221Z,101785.00
2023-05-07T18:59:01.420Z,101780.00
2023-05-07T19:01:30.344Z,101738.00
2023-05-07T19:04:00.176Z,101787.00
2023-05-07T19:06:31.779Z,101794.00
2023-05-07T19:09:01.629Z,101773.00
2023-05-07T19:11:30.029Z,101793.00
2023-05-07T19:13:58.668Z,101790.00
2023-05-07T19:16:27.356Z,101791.00
2023-05-07T19:18:55.898Z,101805.00
2023-05-07T19:21:28.645Z,101782.00
2023-05-07T19:23:58.808Z,101789.00
2023-05-07T19:26:27.265Z,101801.00
2023-05-07T19:29:12.159Z,101778.00
2023-05-07T19:31:44.365Z,101818.00
2023-05-07T19:34:14.424Z,101800.00
2023-05-07T19:36:44.533Z,101820.00
2023-05-07T19:39:13.024Z,101802.00
2023-05-07T19:41:41.966Z,101823.00
2023-05-07T19:44:10.356Z,101814.00
2023-05-07T19:46:42.377Z,101817.00
2023-05-07T19:49:12.763Z,101815.00
2023-05-07T19:51:41.435Z,101823.00
2023-05-07T19:54:11.223Z,101845.00
2023-05-07T19:56:39.995Z,101795.00
2023-05-07T19:59:08.806Z,101825.00
2023-05-07T20:01:40.364Z,101822.00
2023-05-07T20:04:09.238Z,101804.00
2023-05-07T20:06:37.644Z,101846.00
2023-05-07T20:09:07.433Z,101814.00
2023-05-07T20:11:37.107Z,101821.00
2023-05-07T20:14:05.833Z,101848.00
2023-05-07T20:16:34.179Z,101848.00
2023-05-07T20:19:02.440Z,101829.00
2023-05-07T20:21:31.346Z,101847.00
2023-05-07T20:23:59.539Z,101854.00
2023-05-07T20:26:28.063Z,101850.00
2023-05-07T20:28:57.699Z,101865.00
2023-05-07T20:31:26.070Z,101834.00
2023-05-07T20:33:54.537Z,101870.00
2023-05-07T20:36:25.390Z,101826.00
2023-05-07T20:38:53.914Z,101845.00
2023-05-07T20:41:24.705Z,101842.00
2023-05-07T20:43:53.013Z,101857.00
2023-05-07T20:46:23.278Z,101886.00
2023-05-07T20:48:52.142Z,101877.00
2023-05-07T20:51:20.432Z,101875.00
2023-05-07T20:53:49.347Z,101878.00
2023-05-07T20:56:17.752Z,101869.00
2023-05-07T20:58:46.328Z,101874.00
2023-05-07T21:01:14.791Z,101897.00
2023-05-07T21:03:46.454Z,101884.00
2023-05-07T21:06:14.942Z,101859.00
2023-05-07T21:08:46.772Z,101869.00
2023-05-07T21:11:15.238Z,101887.00
2023-05-07T21:13:46.578Z,101884.00
2023-05-07T21:16:15.720Z,101877.00
2023-05-07T21:18:48.685Z,101906.00
2023-05-07T21:21:17.453Z,101897.00
2023-05-07T21:23:46.194Z,101873.00
2023-05-07T21:26:19.789Z,101910.00
2023-05-07T21:28:48.503Z,101909.00
2023-05-07T21:31:18.111Z,101893.00
2023-05-07T21:33:54.347Z,101889.00
2023-05-07T21:36:23.517Z,101915.00
2023-05-07T21:38:52.972Z,101901.00
2023-05-07T21:41:21.989Z,101883.00
2023-05-07T21:43:50.327Z,101880.00
2023-05-07T21:46:19.255Z,101880.00
2023-05-07T21:48:52.446Z,101892.00
2023-05-07T21:51:20.748Z,101878.00
2023-05-07T21:53:48.932Z,101913.00
2023-05-07T21:56:17.287Z,101875.00
2023-05-07T21:58:45.638Z,101852.00
2023-05-07T22:01:14.632Z,101914.00
2023-05-07T22:03:45.022Z,101916.00
2023-05-07T22:06:17.679Z,101926.00
2023-05-07T22:08:46.083Z,101921.00
2023-05-07T22:11:14.320Z,101884.00
2023-05-07T22:13:42.750Z,101924.00
2023-05-07T22:16:11.636Z,101914.00
2023-05-07T22:18:40.616Z,101941.00
2023-05-07T22:21:09.777Z,101944.00
2023-05-07T22:23:39.534Z,101910.00
2023-05-07T22:26:26.022Z,101929.00
2023-05-07T22:28:55.310Z,101930.00
2023-05-07T22:31:28.431Z,101919.00
2023-05-07T22:33:58.664Z,101941.00
2023-05-07T22:36:27.412Z,101904.00
2023-05-07T22:38:57.191Z,101923.00
2023-05-07T22:41:25.794Z,101877.00
2023-05-07T22:43:54.748Z,101921.00
2023-05-07T22:46:23.329Z,101917.00
2023-05-07T22:48:51.905Z,101912.00
2023-05-07T22:51:20.745Z,101937.00
2023-05-07T22:53:52.180Z,101916.00
2023-05-07T22:56:23.170Z,101917.00
2023-05-07T22:58:55.768Z,101920.00
2023-05-07T23:01:25.071Z,101931.00
2023-05-07T23:03:53.669Z,101935.00
2023-05-07T23:06:23.618Z,101927.00
2023-05-07T23:08:55.918Z,101941.00
2023-05-07T23:11:28.115Z,101940.00
2023-05-07T23:13:56.627Z,101920.00
2023-05-07T23:16:25.877Z,101915.00
2023-05-07T23:18:57.979Z,101937.00
2023-05-07T23:21:33.231Z,101899.00
2023-05-07T23:24:01.990Z,101933.00
2023-05-07T23:26:32.202Z,101927.00
2023-05-07T23:29:01.501Z,101911.00
2023-05-07T23:31:30.625Z,101933.00
2023-05-07T23:33:59.421Z,101893.00
2023-05-07T23:36:28.623Z,101909.00
2023-05-07T23:38:57.814Z,101923.00
2023-05-07T23:41:26.915Z,101914.00
2023-05-07T23:43:57.570Z,101909.00
2023-05-07T23:46:27.180Z,101890.00
2023-05-07T23:49:03.324Z,101890.00
2023-05-07T23:51:32.336Z,101895.00
2023-05-07T23:54:01.138Z,101915.00
2023-05-07T23:56:32.254Z,101885.00
2023-05-07T23:59:03.511Z,101902.00
